createdAt,value
2018-12-25T00:02:03.986Z,11.80
2018-12-25T00:04:32.168Z,11.30
2018-12-25T00:07:00.345Z,14.67
2018-12-25T00:09:28.536Z,12.93
2018-12-25T00:11:56.740Z,14.20
2018-12-25T00:14:24.961Z,12.30
2018-12-25T00:16:53.131Z,15.40
2018-12-25T00:19:21.321Z,14.53
2018-12-25T00:21:49.500Z,10.77
2018-12-25T00:24:17.709Z,13.87
2018-12-25T00:26:45.929Z,10.03
2018-12-25T00:29:14.112Z,16.80
2018-12-25T00:31:42.297Z,13.13
2018-12-25T00:34:10.472Z,13.97
2018-12-25T00:36:38.659Z,14.10
2018-12-25T00:39:06.884Z,11.90
2018-12-25T00:41:35.165Z,14.83
2018-12-25T00:44:03.374Z,11.73
2018-12-25T00:46:31.577Z,11.73
2018-12-25T00:48:59.759Z,16.20
2018-12-25T00:51:27.992Z,13.80
2018-12-25T00:53:56.205Z,13.80
2018-12-25T00:56:24.380Z,16.33
2018-12-25T00:58:52.576Z,20.90
2018-12-25T01:01:20.793Z,11.30
2018-12-25T01:03:49.001Z,15.10
2018-12-25T01:06:17.189Z,14.60
2018-12-25T01:08:45.364Z,13.03
2018-12-25T01:11:13.573Z,15.20
2018-12-25T01:13:41.752Z,17.03
2018-12-25T01:16:10.077Z,17.60
2018-12-25T01:18:38.263Z,16.57
2018-12-25T01:21:06.474Z,14.90
2018-12-25T01:23:34.660Z,15.90
2018-12-25T01:26:02.877Z,18.87
2018-12-25T01:28:31.094Z,15.85
2018-12-25T01:30:59.297Z,21.77
2018-12-25T01:33:27.504Z,14.87
2018-12-25T01:35:55.697Z,12.43
2018-12-25T01:38:23.908Z,13.87
2018-12-25T01:40:52.093Z,17.80
2018-12-25T01:43:20.272Z,14.43
2018-12-25T01:45:48.478Z,17.80
2018-12-25T01:48:16.660Z,20.63
2018-12-25T01:50:44.870Z,19.13
2018-12-25T01:53:13.077Z,17.37
2018-12-25T01:55:41.319Z,20.55
2018-12-25T01:58:09.520Z,21.75
2018-12-25T02:00:37.726Z,26.13
2018-12-25T02:03:06.019Z,20.27
2018-12-25T02:05:34.200Z,19.47
2018-12-25T02:08:02.413Z,23.67
2018-12-25T02:10:30.629Z,30.70
2018-12-25T02:12:58.803Z,24.93
2018-12-25T02:15:27.038Z,19.57
2018-12-25T02:17:55.218Z,25.23
2018-12-25T02:20:23.422Z,21.73
2018-12-25T02:22:51.641Z,21.97
2018-12-25T02:25:19.849Z,18.83
2018-12-25T02:27:48.027Z,18.00
2018-12-25T02:30:16.233Z,18.67
2018-12-25T02:32:44.447Z,20.10
2018-12-25T02:35:12.660Z,15.83
2018-12-25T02:37:40.920Z,23.60
2018-12-25T02:40:09.133Z,14.17
2018-12-25T02:42:37.345Z,17.00
2018-12-25T02:45:05.550Z,18.10
2018-12-25T02:47:33.737Z,17.77
2018-12-25T02:50:01.914Z,20.50
2018-12-25T02:52:30.127Z,20.07
2018-12-25T02:54:58.352Z,16.40
2018-12-25T02:57:26.592Z,16.97
2018-12-25T02:59:54.792Z,18.17
2018-12-25T03:02:22.974Z,14.90
2018-12-25T03:04:51.268Z,16.10
2018-12-25T03:07:19.489Z,14.93
2018-12-25T03:09:47.680Z,13.33
2018-12-25T03:12:15.857Z,13.23
2018-12-25T03:14:44.033Z,13.87
2018-12-25T03:17:12.217Z,17.37
2018-12-25T03:19:40.405Z,17.50
2018-12-25T03:22:08.628Z,13.97
2018-12-25T03:24:36.896Z,14.37
2018-12-25T03:27:05.074Z,16.70
2018-12-25T03:29:33.287Z,23.03
2018-12-25T03:32:01.519Z,18.73
2018-12-25T03:34:29.756Z,15.43
2018-12-25T03:36:57.978Z,14.47
2018-12-25T03:39:26.184Z,12.63
2018-12-25T03:41:54.364Z,10.57
2018-12-25T03:44:22.571Z,17.13
2018-12-25T03:46:50.749Z,11.00
2018-12-25T03:49:18.925Z,12.33
2018-12-25T03:51:47.166Z,15.20
2018-12-25T03:54:15.352Z,12.70
2018-12-25T03:56:43.533Z,16.13
2018-12-25T03:59:11.757Z,14.77
2018-12-25T04:01:40.012Z,15.17
2018-12-25T04:04:08.234Z,13.87
2018-12-25T04:06:36.416Z,14.67
2018-12-25T04:09:05.421Z,13.90
2018-12-25T04:11:33.685Z,11.97
2018-12-25T04:14:01.858Z,13.77
2018-12-25T04:16:30.058Z,8.90
2018-12-25T04:18:58.270Z,10.30
2018-12-25T04:21:26.448Z,13.23
2018-12-25T04:23:54.640Z,11.47
2018-12-25T04:26:22.848Z,11.70
2018-12-25T04:28:51.155Z,10.03
2018-12-25T04:31:19.429Z,13.23
2018-12-25T04:33:47.649Z,9.03
2018-12-25T04:36:15.849Z,10.43
2018-12-25T04:38:44.068Z,10.43
2018-12-25T04:41:12.334Z,7.40
2018-12-25T04:43:40.553Z,12.23
2018-12-25T04:46:08.761Z,14.10
2018-12-25T04:48:36.990Z,11.03
2018-12-25T04:51:05.159Z,9.57
2018-12-25T04:53:33.339Z,9.70
2018-12-25T04:56:01.517Z,9.60
2018-12-25T04:58:30.262Z,14.47
2018-12-25T05:00:58.521Z,11.83
2018-12-25T05:03:26.749Z,7.93
2018-12-25T05:05:54.928Z,10.37
2018-12-25T05:08:23.145Z,11.80
2018-12-25T05:10:51.328Z,6.70
2018-12-25T05:13:19.500Z,6.37
2018-12-25T05:15:47.678Z,7.30
2018-12-25T05:18:15.878Z,5.43
2018-12-25T05:20:44.084Z,8.43
2018-12-25T05:23:12.297Z,5.93
2018-12-25T05:25:40.517Z,16.37
2018-12-25T05:28:08.699Z,6.43
2018-12-25T05:30:36.869Z,7.53
2018-12-25T05:33:05.081Z,7.47
2018-12-25T05:35:33.278Z,7.90
2018-12-25T05:38:01.517Z,8.17
2018-12-25T05:40:29.704Z,6.30
2018-12-25T05:42:57.909Z,4.63
2018-12-25T05:45:26.118Z,5.50
2018-12-25T05:47:54.364Z,6.50
2018-12-25T05:50:22.567Z,4.87
2018-12-25T05:52:50.752Z,12.30
2018-12-25T05:55:19.537Z,5.27
2018-12-25T05:57:47.893Z,10.27
2018-12-25T06:00:16.137Z,3.73
2018-12-25T06:02:44.345Z,5.00
2018-12-25T06:05:12.517Z,16.80
2018-12-25T06:07:40.701Z,4.53
2018-12-25T06:10:08.910Z,3.80
2018-12-25T06:12:37.199Z,4.37
2018-12-25T06:15:05.840Z,7.67
2018-12-25T06:17:34.126Z,6.70
2018-12-25T06:20:02.329Z,3.53
2018-12-25T06:22:30.557Z,9.23
2018-12-25T06:24:58.766Z,5.87
2018-12-25T06:27:26.936Z,6.60
2018-12-25T06:29:55.116Z,8.90
2018-12-25T06:32:23.313Z,5.77
2018-12-25T06:34:51.492Z,4.20
2018-12-25T06:37:19.668Z,5.83
2018-12-25T06:39:47.843Z,3.13
2018-12-25T06:42:16.053Z,4.90
2018-12-25T06:44:44.232Z,3.57
2018-12-25T06:47:12.434Z,4.60
2018-12-25T06:49:40.732Z,5.43
2018-12-25T06:52:08.940Z,5.00
2018-12-25T06:54:39.351Z,5.93
2018-12-25T06:57:07.092Z,5.03
2018-12-25T06:59:35.264Z,5.20
2018-12-25T07:02:03.476Z,4.23
2018-12-25T07:04:32.050Z,5.70
2018-12-25T07:07:00.223Z,5.67
2018-12-25T07:09:28.430Z,5.90
2018-12-25T07:11:56.605Z,5.00
2018-12-25T07:14:24.809Z,5.23
2018-12-25T07:16:53.042Z,7.93
2018-12-25T07:19:21.212Z,7.10
2018-12-25T07:21:49.410Z,3.37
2018-12-25T07:24:17.588Z,3.27
2018-12-25T07:26:45.792Z,4.70
2018-12-25T07:29:13.980Z,3.37
2018-12-25T07:31:42.181Z,7.20
2018-12-25T07:34:10.390Z,4.70
2018-12-25T07:36:38.609Z,5.80
2018-12-25T07:39:06.811Z,4.50
2018-12-25T07:41:36.628Z,4.63
2018-12-25T07:44:04.829Z,9.57
2018-12-25T07:46:33.037Z,4.67
2018-12-25T07:49:01.250Z,9.37
2018-12-25T07:51:29.432Z,6.60
2018-12-25T07:53:57.604Z,3.60
2018-12-25T07:56:25.824Z,6.43
2018-12-25T07:58:53.992Z,9.73
2018-12-25T08:01:22.163Z,8.50
2018-12-25T08:03:50.344Z,6.27
2018-12-25T08:06:18.614Z,8.30
2018-12-25T08:08:46.787Z,11.30
2018-12-25T08:11:15.005Z,8.87
2018-12-25T08:13:43.209Z,9.20
2018-12-25T08:16:11.405Z,7.60
2018-12-25T08:18:40.285Z,8.50
2018-12-25T08:21:08.639Z,8.90
2018-12-25T08:23:36.823Z,16.17
2018-12-25T08:26:05.037Z,6.17
2018-12-25T08:28:33.251Z,10.93
2018-12-25T08:31:01.470Z,12.60
2018-12-25T08:33:29.673Z,8.10
2018-12-25T08:35:57.889Z,15.20
2018-12-25T08:38:26.089Z,9.70
2018-12-25T08:40:54.268Z,6.80
2018-12-25T08:43:22.449Z,8.67
2018-12-25T08:45:50.619Z,4.93
2018-12-25T08:48:18.838Z,3.97
2018-12-25T08:50:47.040Z,7.90
2018-12-25T08:53:15.249Z,8.17
2018-12-25T08:55:43.412Z,7.90
2018-12-25T08:58:11.576Z,7.60
2018-12-25T09:00:39.796Z,4.53
2018-12-25T09:03:08.074Z,6.90
2018-12-25T09:05:36.301Z,5.43
2018-12-25T09:08:04.509Z,6.70
2018-12-25T09:10:32.687Z,5.80
2018-12-25T09:13:00.897Z,5.03
2018-12-25T09:15:29.104Z,7.00
2018-12-25T09:17:57.272Z,9.67
2018-12-25T09:20:25.486Z,5.60
2018-12-25T09:22:53.664Z,6.53
2018-12-25T09:25:21.884Z,10.03
2018-12-25T09:27:50.058Z,6.03
2018-12-25T09:30:18.257Z,4.50
2018-12-25T09:32:46.428Z,4.43
2018-12-25T09:35:14.605Z,4.50
2018-12-25T09:37:42.817Z,4.27
2018-12-25T09:40:11.029Z,6.90
2018-12-25T09:42:39.241Z,6.00
2018-12-25T09:45:07.441Z,5.07
2018-12-25T09:47:35.700Z,4.60
2018-12-25T09:50:03.949Z,5.60
2018-12-25T09:52:32.156Z,4.33
2018-12-25T09:55:00.359Z,4.27
2018-12-25T09:57:28.561Z,4.20
2018-12-25T09:59:56.758Z,3.90
2018-12-25T10:02:24.937Z,3.70
2018-12-25T10:04:53.151Z,6.17
2018-12-25T10:07:23.225Z,5.13
2018-12-25T10:09:51.229Z,3.70
2018-12-25T10:12:19.479Z,4.83
2018-12-25T10:14:47.685Z,4.07
2018-12-25T10:17:15.889Z,4.27
2018-12-25T10:19:44.064Z,9.83
2018-12-25T10:22:12.248Z,4.33
2018-12-25T10:24:40.486Z,7.20
2018-12-25T10:27:08.693Z,4.53
2018-12-25T10:29:36.897Z,5.80
2018-12-25T10:32:05.067Z,5.50
2018-12-25T10:34:33.235Z,5.27
2018-12-25T10:37:01.449Z,4.57
2018-12-25T10:39:29.673Z,4.57
2018-12-25T10:41:57.869Z,6.97
2018-12-25T10:44:26.101Z,7.13
2018-12-25T10:46:54.276Z,7.53
2018-12-25T10:49:22.488Z,5.33
2018-12-25T10:51:50.687Z,7.37
2018-12-25T10:54:19.031Z,5.43
2018-12-25T10:56:47.220Z,3.60
2018-12-25T10:59:15.417Z,9.83
2018-12-25T11:01:43.631Z,5.00
2018-12-25T11:04:11.829Z,6.40
2018-12-25T11:06:40.037Z,6.60
2018-12-25T11:09:08.242Z,5.83
2018-12-25T11:11:36.445Z,6.20
2018-12-25T11:14:04.616Z,3.33
2018-12-25T11:16:32.793Z,5.63
2018-12-25T11:19:01.010Z,5.07
2018-12-25T11:21:29.168Z,4.00
2018-12-25T11:23:57.352Z,3.20
2018-12-25T11:26:25.572Z,4.17
2018-12-25T11:28:53.815Z,5.40
2018-12-25T11:31:22.021Z,6.97
2018-12-25T11:33:50.226Z,2.60
2018-12-25T11:36:18.429Z,5.20
2018-12-25T11:38:46.600Z,3.40
2018-12-25T11:41:14.833Z,3.70
2018-12-25T11:43:43.042Z,8.53
2018-12-25T11:46:11.312Z,9.50
2018-12-25T11:48:39.528Z,3.60
2018-12-25T11:51:07.741Z,3.00
2018-12-25T11:53:35.950Z,9.80
2018-12-25T11:56:04.115Z,4.43
2018-12-25T11:58:32.348Z,4.03
2018-12-25T12:01:00.519Z,4.87
2018-12-25T12:03:28.759Z,6.50
2018-12-25T12:05:57.004Z,8.30
2018-12-25T12:08:25.172Z,3.00
2018-12-25T12:10:53.345Z,4.53
2018-12-25T12:13:21.531Z,4.97
2018-12-25T12:15:49.708Z,6.50
2018-12-25T12:18:17.891Z,7.27
2018-12-25T12:20:46.102Z,3.50
2018-12-25T12:23:14.314Z,4.87
2018-12-25T12:25:42.521Z,5.90
2018-12-25T12:28:10.698Z,6.23
2018-12-25T12:30:38.901Z,8.40
2018-12-25T12:33:07.079Z,2.97
2018-12-25T12:35:35.276Z,8.80
2018-12-25T12:38:03.462Z,3.47
2018-12-25T12:40:31.672Z,6.07
2018-12-25T12:42:59.954Z,3.10
2018-12-25T12:45:28.116Z,3.67
2018-12-25T12:47:56.366Z,3.00
2018-12-25T12:50:24.563Z,4.13
2018-12-25T12:52:52.730Z,7.77
2018-12-25T12:55:20.969Z,8.57
2018-12-25T12:57:50.040Z,3.17
2018-12-25T13:00:18.236Z,3.50
2018-12-25T13:02:46.438Z,7.30
2018-12-25T13:05:14.635Z,3.40
2018-12-25T13:07:42.807Z,6.27
2018-12-25T13:10:11.017Z,4.97
2018-12-25T13:12:39.225Z,5.27
2018-12-25T13:15:07.439Z,3.57
2018-12-25T13:17:35.702Z,3.40
2018-12-25T13:20:04.641Z,3.03
2018-12-25T13:22:32.849Z,4.30
2018-12-25T13:25:01.049Z,3.83
2018-12-25T13:27:29.235Z,6.63
2018-12-25T13:29:57.441Z,7.10
2018-12-25T13:32:25.645Z,3.00
2018-12-25T13:34:53.842Z,5.20
2018-12-25T13:37:22.048Z,6.83
2018-12-25T13:39:50.254Z,6.17
2018-12-25T13:42:18.420Z,4.73
2018-12-25T13:44:46.650Z,6.07
2018-12-25T13:47:14.845Z,5.07
2018-12-25T13:49:43.008Z,7.63
2018-12-25T13:52:11.235Z,4.00
2018-12-25T13:54:40.285Z,4.20
2018-12-25T13:57:08.465Z,5.27
2018-12-25T13:59:36.640Z,5.60
2018-12-25T14:02:04.821Z,5.60
2018-12-25T14:04:32.996Z,4.20
2018-12-25T14:07:01.180Z,2.30
2018-12-25T14:09:29.348Z,4.20
2018-12-25T14:11:57.532Z,5.63
2018-12-25T14:14:25.704Z,4.50
2018-12-25T14:16:53.915Z,4.70
2018-12-25T14:19:22.088Z,6.87
2018-12-25T14:21:50.274Z,7.93
2018-12-25T14:24:18.485Z,9.70
2018-12-25T14:26:46.685Z,4.40
2018-12-25T14:29:14.863Z,6.03
2018-12-25T14:31:43.036Z,10.87
2018-12-25T14:34:11.216Z,8.00
2018-12-25T14:36:39.466Z,4.73
2018-12-25T14:39:07.775Z,4.70
2018-12-25T14:41:35.989Z,6.47
2018-12-25T14:44:05.303Z,6.30
2018-12-25T14:46:33.917Z,5.03
2018-12-25T14:49:02.086Z,6.63
2018-12-25T14:51:30.299Z,4.80
2018-12-25T14:53:58.489Z,5.97
2018-12-25T14:56:26.708Z,6.40
2018-12-25T14:58:54.905Z,6.70
2018-12-25T15:01:23.102Z,7.03
2018-12-25T15:03:51.308Z,5.07
2018-12-25T15:06:19.553Z,8.87
2018-12-25T15:08:47.764Z,5.90
2018-12-25T15:11:15.940Z,15.57
2018-12-25T15:13:44.124Z,6.97
2018-12-25T15:16:12.333Z,6.47
2018-12-25T15:18:40.529Z,4.80
2018-12-25T15:21:08.703Z,6.33
2018-12-25T15:23:36.986Z,8.07
2018-12-25T15:26:05.199Z,8.20
2018-12-25T15:28:33.389Z,5.60
2018-12-25T15:31:01.590Z,6.43
2018-12-25T15:33:29.772Z,12.33
2018-12-25T15:35:57.989Z,9.33
2018-12-25T15:38:26.232Z,7.33
2018-12-25T15:40:54.400Z,7.93
2018-12-25T15:43:22.604Z,8.27
2018-12-25T15:45:50.805Z,9.33
2018-12-25T15:48:19.006Z,6.40
2018-12-25T15:50:47.216Z,8.87
2018-12-25T15:53:15.412Z,9.23
2018-12-25T15:55:43.590Z,12.20
2018-12-25T15:58:11.969Z,6.10
2018-12-25T16:00:40.146Z,7.67
2018-12-25T16:03:08.359Z,5.73
2018-12-25T16:05:36.570Z,7.40
2018-12-25T16:08:04.740Z,7.60
2018-12-25T16:10:32.924Z,8.37
2018-12-25T16:13:01.129Z,9.43
2018-12-25T16:15:29.305Z,6.97
2018-12-25T16:17:57.479Z,5.13
2018-12-25T16:20:25.693Z,4.83
2018-12-25T16:22:53.895Z,9.30
2018-12-25T16:25:22.089Z,5.53
2018-12-25T16:27:50.269Z,6.90
2018-12-25T16:30:18.435Z,5.40
2018-12-25T16:32:46.630Z,9.20
2018-12-25T16:35:14.824Z,6.50
2018-12-25T16:37:43.061Z,5.67
2018-12-25T16:40:11.256Z,9.10
2018-12-25T16:42:39.458Z,4.63
2018-12-25T16:45:07.673Z,9.50
2018-12-25T16:47:35.840Z,7.17
2018-12-25T16:50:04.217Z,5.00
2018-12-25T16:52:32.393Z,5.20
2018-12-25T16:55:00.576Z,13.10
2018-12-25T16:57:28.748Z,7.13
2018-12-25T16:59:56.946Z,5.83
2018-12-25T17:02:25.126Z,10.47
2018-12-25T17:04:53.325Z,7.93
2018-12-25T17:07:21.509Z,12.23
2018-12-25T17:09:49.723Z,7.10
2018-12-25T17:12:17.929Z,7.77
2018-12-25T17:14:46.129Z,8.87
2018-12-25T17:17:14.312Z,11.03
2018-12-25T17:19:42.483Z,6.83
2018-12-25T17:22:10.672Z,10.30
2018-12-25T17:24:38.885Z,12.80
2018-12-25T17:27:07.113Z,9.80
2018-12-25T17:29:35.305Z,7.23
2018-12-25T17:32:03.516Z,8.87
2018-12-25T17:34:31.797Z,7.90
2018-12-25T17:36:59.971Z,11.83
2018-12-25T17:39:28.194Z,13.70
2018-12-25T17:41:56.393Z,8.80
2018-12-25T17:44:24.594Z,8.30
2018-12-25T17:46:52.798Z,10.90
2018-12-25T17:49:21.007Z,9.40
2018-12-25T17:51:49.207Z,6.30
2018-12-25T17:54:17.449Z,10.53
2018-12-25T17:56:45.708Z,11.17
2018-12-25T17:59:13.872Z,8.37
2018-12-25T18:01:42.047Z,8.67
2018-12-25T18:04:10.295Z,8.80
2018-12-25T18:06:38.556Z,16.50
2018-12-25T18:09:06.761Z,7.43
2018-12-25T18:11:34.965Z,9.67
2018-12-25T18:14:03.139Z,9.47
2018-12-25T18:16:31.364Z,9.13
2018-12-25T18:18:59.569Z,8.50
2018-12-25T18:21:27.801Z,7.30
2018-12-25T18:23:56.040Z,6.10
2018-12-25T18:26:24.229Z,7.40
2018-12-25T18:28:52.413Z,7.93
2018-12-25T18:31:20.608Z,9.90
2018-12-25T18:33:48.799Z,6.70
2018-12-25T18:36:17.009Z,8.20
2018-12-25T18:38:45.260Z,8.50
2018-12-25T18:41:13.456Z,6.80
2018-12-25T18:43:41.729Z,8.63
2018-12-25T18:46:09.889Z,5.40
2018-12-25T18:48:38.124Z,8.70
2018-12-25T18:51:06.348Z,10.93
2018-12-25T18:53:34.516Z,6.53
2018-12-25T18:56:02.746Z,5.37
2018-12-25T18:58:30.913Z,7.17
2018-12-25T19:00:59.125Z,12.83
2018-12-25T19:03:27.328Z,6.87
2018-12-25T19:05:55.565Z,12.30
2018-12-25T19:08:23.765Z,6.00
2018-12-25T19:10:51.962Z,5.73
2018-12-25T19:13:20.170Z,7.97
2018-12-25T19:15:48.363Z,6.70
2018-12-25T19:18:16.570Z,5.60
2018-12-25T19:20:44.737Z,7.53
2018-12-25T19:23:12.957Z,7.83
2018-12-25T19:25:41.161Z,7.40
2018-12-25T19:28:09.429Z,9.03
2018-12-25T19:30:37.713Z,8.60
2018-12-25T19:33:05.913Z,8.00
2018-12-25T19:35:34.126Z,6.27
2018-12-25T19:38:02.368Z,5.67
2018-12-25T19:40:30.580Z,8.20
2018-12-25T19:42:58.786Z,7.53
2018-12-25T19:45:26.948Z,3.70
2018-12-25T19:47:55.161Z,3.90
2018-12-25T19:50:24.404Z,12.87
2018-12-25T19:52:52.853Z,6.77
2018-12-25T19:55:21.015Z,5.00
2018-12-25T19:57:49.200Z,6.33
2018-12-25T20:00:17.371Z,6.40
2018-12-25T20:02:45.834Z,4.47
2018-12-25T20:05:21.434Z,5.80
2018-12-25T20:07:51.177Z,4.00
2018-12-25T20:10:20.879Z,5.03
2018-12-25T20:12:50.633Z,4.37
2018-12-25T20:15:20.377Z,5.63
2018-12-25T20:17:50.121Z,8.60
2018-12-25T20:20:23.077Z,6.80
2018-12-25T20:23:07.875Z,6.40
2018-12-25T20:25:37.616Z,5.27
2018-12-25T20:28:16.297Z,5.50
2018-12-25T20:31:02.720Z,5.83
2018-12-25T20:33:35.348Z,3.20
2018-12-25T20:36:10.837Z,4.17
2018-12-25T20:38:49.669Z,10.97
2018-12-25T20:41:36.162Z,4.17
2018-12-25T20:44:17.713Z,5.10
2018-12-25T20:46:59.356Z,5.60
2018-12-25T20:49:29.097Z,9.13
2018-12-25T20:51:58.800Z,3.73
2018-12-25T20:54:31.649Z,4.97
2018-12-25T20:57:07.248Z,5.73
2018-12-25T20:59:45.986Z,10.90
2018-12-25T21:02:21.622Z,4.70
2018-12-25T21:05:09.801Z,7.43
2018-12-25T21:07:55.952Z,4.70
2018-12-25T21:10:31.772Z,5.60
2018-12-25T21:13:07.465Z,9.27
2018-12-25T21:15:42.931Z,4.20
2018-12-25T21:18:29.137Z,7.10
2018-12-25T21:21:15.381Z,3.77
2018-12-25T21:24:01.935Z,5.83
2018-12-25T21:26:48.185Z,4.40
2018-12-25T21:29:16.425Z,4.80
2018-12-25T21:31:44.710Z,5.00
2018-12-25T21:34:12.986Z,5.53
2018-12-25T21:36:42.708Z,7.07
2018-12-25T21:39:10.949Z,6.40
2018-12-25T21:41:39.120Z,7.70
2018-12-25T21:44:07.701Z,5.57
2018-12-25T21:46:35.900Z,10.17
2018-12-25T21:49:04.148Z,9.57
2018-12-25T21:51:32.348Z,9.63
2018-12-25T21:54:07.016Z,5.20
2018-12-25T21:56:35.967Z,5.47
2018-12-25T21:59:04.185Z,4.73
2018-12-25T22:01:33.299Z,5.23
2018-12-25T22:04:01.471Z,3.97
2018-12-25T22:06:29.644Z,5.70
2018-12-25T22:08:57.823Z,11.00
2018-12-25T22:11:26.081Z,4.87
2018-12-25T22:13:54.243Z,7.20
2018-12-25T22:16:22.563Z,5.93
2018-12-25T22:18:50.952Z,5.10
2018-12-25T22:21:19.416Z,4.27
2018-12-25T22:23:47.629Z,8.27
2018-12-25T22:26:15.829Z,7.50
2018-12-25T22:28:44.116Z,7.70
2018-12-25T22:31:12.344Z,5.17
2018-12-25T22:33:40.516Z,4.17
2018-12-25T22:36:08.725Z,4.47
2018-12-25T22:38:37.081Z,6.80
2018-12-25T22:41:05.365Z,7.83
2018-12-25T22:43:33.564Z,5.23
2018-12-25T22:46:01.782Z,10.20
2018-12-25T22:48:29.991Z,9.67
2018-12-25T22:50:58.245Z,5.63
2018-12-25T22:53:26.430Z,8.90
2018-12-25T22:55:54.611Z,6.90
2018-12-25T22:58:22.779Z,8.23
2018-12-25T23:00:51.035Z,7.07
2018-12-25T23:03:19.248Z,7.77
2018-12-25T23:05:47.464Z,12.53
2018-12-25T23:08:15.652Z,8.50
2018-12-25T23:10:43.862Z,7.37
2018-12-25T23:13:12.120Z,13.53
2018-12-25T23:15:40.291Z,5.83
2018-12-25T23:18:08.483Z,9.10
2018-12-25T23:20:36.688Z,8.03
2018-12-25T23:23:04.861Z,6.40
2018-12-25T23:25:33.042Z,6.07
2018-12-25T23:28:01.225Z,10.57
2018-12-25T23:30:29.437Z,10.80
2018-12-25T23:32:57.607Z,7.27
2018-12-25T23:35:25.843Z,8.50
2018-12-25T23:37:54.045Z,7.33
2018-12-25T23:40:22.233Z,6.00
2018-12-25T23:42:50.449Z,13.20
2018-12-25T23:45:18.662Z,11.93
2018-12-25T23:47:46.907Z,8.07
2018-12-25T23:50:15.090Z,10.23
2018-12-25T23:52:43.313Z,8.33
2018-12-25T23:55:11.513Z,8.53
2018-12-25T23:57:39.692Z,7.63
